createdAt,value
2018-10-21T00:01:53.517Z,143.95
2018-10-21T00:04:22.029Z,143.93
2018-10-21T00:06:50.564Z,148.35
2018-10-21T00:09:19.134Z,145.57
2018-10-21T00:11:48.159Z,132.67
2018-10-21T00:14:17.217Z,146.60
2018-10-21T00:16:46.859Z,168.43
2018-10-21T00:19:15.923Z,162.15
2018-10-21T00:21:46.685Z,167.75
2018-10-21T00:24:15.294Z,174.30
2018-10-21T00:26:44.544Z,196.28
2018-10-21T00:29:13.169Z,189.18
2018-10-21T00:31:41.766Z,203.58
2018-10-21T00:34:10.431Z,161.52
2018-10-21T00:36:39.012Z,189.07
2018-10-21T00:39:10.500Z,171.25
2018-10-21T00:41:38.970Z,181.85
2018-10-21T00:44:08.153Z,173.72
2018-10-21T00:46:36.922Z,147.60
2018-10-21T00:49:06.045Z,165.77
2018-10-21T00:51:34.558Z,180.12
2018-10-21T00:54:03.547Z,203.62
2018-10-21T00:56:32.122Z,181.55
2018-10-21T00:59:00.663Z,188.00
2018-10-21T01:01:29.326Z,181.57
2018-10-21T01:03:57.854Z,226.02
2018-10-21T01:06:26.313Z,196.45
2018-10-21T01:08:55.472Z,197.65
2018-10-21T01:11:23.983Z,195.35
2018-10-21T01:13:52.843Z,179.53
2018-10-21T01:16:21.581Z,237.23
2018-10-21T01:18:50.239Z,221.60
2018-10-21T01:24:27.459Z,192.80
2018-10-21T01:26:55.944Z,208.75
2018-10-21T01:29:24.435Z,189.70
2018-10-21T01:31:52.957Z,172.95
2018-10-21T01:34:35.620Z,237.08
2018-10-21T01:37:04.262Z,203.42
2018-10-21T01:39:43.875Z,173.00
2018-10-21T01:42:12.398Z,221.62
2018-10-21T01:44:40.992Z,195.87
2018-10-21T01:47:09.774Z,198.43
2018-10-21T01:49:42.165Z,208.63
2018-10-21T01:52:11.083Z,216.68
2018-10-21T01:54:40.000Z,199.20
2018-10-21T01:57:09.093Z,215.25
2018-10-21T01:59:37.821Z,238.55
2018-10-21T02:02:06.661Z,229.40
2018-10-21T02:04:35.685Z,221.00
2018-10-21T02:07:04.645Z,211.57
2018-10-21T02:09:33.631Z,226.12
2018-10-21T02:12:02.470Z,205.40
2018-10-21T02:14:31.508Z,189.95
2018-10-21T02:17:00.411Z,200.85
2018-10-21T02:19:29.971Z,187.65
2018-10-21T02:21:59.452Z,196.53
2018-10-21T02:24:28.349Z,160.15
2018-10-21T02:26:57.364Z,184.50
2018-10-21T02:29:26.241Z,160.48
2018-10-21T02:31:55.092Z,161.35
2018-10-21T02:34:23.973Z,171.57
2018-10-21T02:36:53.374Z,192.28
2018-10-21T02:39:22.253Z,211.77
2018-10-21T02:41:56.918Z,162.90
2018-10-21T02:44:29.473Z,175.38
2018-10-21T02:46:58.935Z,178.53
2018-10-21T02:49:28.060Z,177.12
2018-10-21T02:52:02.266Z,222.22
2018-10-21T02:54:32.287Z,285.70
2018-10-21T02:57:03.202Z,306.50
2018-10-21T02:59:31.941Z,403.75
2018-10-21T03:02:01.712Z,713.70
2018-10-21T03:04:30.663Z,426.87
2018-10-21T03:06:59.485Z,378.60
2018-10-21T03:09:29.283Z,336.15
2018-10-21T03:11:58.283Z,297.50
2018-10-21T03:14:27.172Z,222.52
2018-10-21T03:16:56.657Z,219.95
2018-10-21T03:19:25.542Z,226.98
2018-10-21T03:21:54.390Z,292.80
2018-10-21T03:24:23.960Z,275.45
2018-10-21T03:26:52.849Z,262.05
2018-10-21T03:29:21.696Z,303.20
2018-10-21T03:31:50.435Z,251.05
2018-10-21T03:34:19.370Z,255.30
2018-10-21T03:36:48.088Z,232.20
2018-10-21T03:39:16.909Z,216.55
2018-10-21T03:41:45.829Z,215.50
2018-10-21T03:44:16.629Z,221.75
2018-10-21T03:46:45.530Z,189.90
2018-10-21T03:49:14.399Z,169.30
2018-10-21T03:51:43.294Z,164.90
2018-10-21T03:54:12.506Z,150.87
2018-10-21T03:56:41.337Z,151.30
2018-10-21T03:59:10.072Z,174.85
2018-10-21T04:01:38.876Z,195.18
2018-10-21T04:04:07.702Z,172.98
2018-10-21T04:06:36.665Z,167.77
2018-10-21T04:09:07.445Z,173.93
2018-10-21T04:11:36.324Z,147.70
2018-10-21T04:14:05.158Z,153.53
2018-10-21T04:16:34.816Z,135.30
2018-10-21T04:19:03.681Z,135.37
2018-10-21T04:21:32.655Z,157.10
2018-10-21T04:24:01.662Z,211.95
2018-10-21T04:26:30.947Z,301.50
2018-10-21T04:28:59.853Z,737.00
2018-10-21T04:31:28.696Z,372.90
2018-10-21T04:33:57.578Z,379.90
2018-10-21T04:36:30.905Z,178.18
2018-10-21T04:39:35.852Z,510.57
2018-10-21T04:42:04.770Z,400.65
2018-10-21T04:44:33.668Z,375.93
2018-10-21T04:47:02.795Z,482.52
2018-10-21T04:49:31.541Z,596.10
2018-10-21T04:52:00.495Z,679.67
2018-10-21T04:54:33.496Z,434.52
2018-10-21T04:57:02.617Z,439.48
2018-10-21T05:03:09.672Z,217.53
2018-10-21T05:05:45.688Z,254.05
2018-10-21T05:08:19.220Z,221.80
2018-10-21T05:10:53.370Z,271.20
2018-10-21T05:13:25.174Z,261.87
2018-10-21T05:15:59.336Z,277.75
2018-10-21T05:18:27.821Z,326.00
2018-10-21T05:20:57.448Z,225.68
2018-10-21T05:23:25.932Z,255.47
2018-10-21T05:25:54.506Z,213.62
2018-10-21T05:28:22.999Z,206.82
2018-10-21T05:30:58.687Z,170.45
2018-10-21T05:33:27.248Z,184.35
2018-10-21T05:36:03.657Z,147.95
2018-10-21T05:38:32.149Z,148.32
2018-10-21T05:41:00.689Z,141.73
2018-10-21T05:43:29.741Z,130.37
2018-10-21T05:45:58.534Z,136.75
2018-10-21T05:48:27.271Z,147.62
2018-10-21T05:50:56.062Z,136.03
2018-10-21T05:53:24.547Z,146.02
2018-10-21T05:55:59.051Z,212.40
2018-10-21T05:58:27.587Z,215.45
2018-10-21T06:00:56.030Z,162.65
2018-10-21T06:03:24.600Z,270.57
2018-10-21T06:05:54.206Z,164.30
2018-10-21T06:08:26.092Z,171.22
2018-10-21T06:10:55.100Z,129.65
2018-10-21T06:13:24.133Z,187.27
2018-10-21T06:15:53.157Z,228.55
2018-10-21T06:18:25.076Z,212.23
2018-10-21T06:20:58.093Z,135.78
2018-10-21T06:23:29.219Z,118.10
2018-10-21T06:26:01.230Z,119.22
2018-10-21T06:28:30.216Z,104.27
2018-10-21T06:30:59.010Z,217.50
2018-10-21T06:33:32.432Z,146.80
2018-10-21T06:36:02.802Z,139.20
2018-10-21T06:38:31.725Z,129.30
2018-10-21T06:41:00.639Z,111.75
2018-10-21T06:43:30.737Z,116.42
2018-10-21T06:46:01.724Z,116.97
2018-10-21T06:48:30.700Z,92.65
2018-10-21T06:51:01.936Z,86.20
2018-10-21T06:53:30.711Z,115.17
2018-10-21T06:55:59.965Z,115.15
2018-10-21T06:58:28.891Z,87.92
2018-10-21T07:00:59.923Z,102.02
2018-10-21T07:03:29.316Z,105.17
2018-10-21T07:06:29.713Z,127.27
2018-10-21T07:09:02.006Z,90.77
2018-10-21T07:14:33.230Z,87.82
2018-10-21T07:17:02.122Z,85.15
2018-10-21T07:19:30.973Z,82.22
2018-10-21T07:21:59.867Z,84.77
2018-10-21T07:24:28.679Z,91.17
2018-10-21T07:26:58.139Z,81.92
2018-10-21T07:29:27.084Z,90.35
2018-10-21T07:31:56.039Z,102.40
2018-10-21T07:34:24.781Z,97.08
2018-10-21T07:36:54.304Z,96.22
2018-10-21T07:39:46.209Z,98.12
2018-10-21T07:42:17.377Z,88.25
2018-10-21T07:44:51.816Z,90.35
2018-10-21T07:47:20.601Z,95.70
2018-10-21T07:52:23.461Z,100.02
2018-10-21T07:54:52.366Z,87.45
2018-10-21T07:57:21.330Z,83.67
2018-10-21T07:59:50.330Z,89.67
2018-10-21T08:02:19.174Z,87.15
2018-10-21T08:04:47.979Z,100.35
2018-10-21T08:07:27.880Z,105.30
2018-10-21T08:09:56.881Z,91.40
2018-10-21T08:12:25.736Z,95.50
2018-10-21T08:14:54.698Z,90.23
2018-10-21T08:17:23.533Z,120.70
2018-10-21T08:19:53.639Z,86.83
2018-10-21T08:22:23.936Z,101.07
2018-10-21T08:24:53.669Z,96.23
2018-10-21T08:27:22.790Z,95.10
2018-10-21T08:29:55.656Z,90.10
2018-10-21T08:32:24.485Z,120.27
2018-10-21T08:34:53.401Z,121.30
2018-10-21T08:37:22.434Z,159.60
2018-10-21T08:39:51.484Z,203.57
2018-10-21T08:42:20.507Z,277.70
2018-10-21T08:44:50.060Z,202.50
2018-10-21T08:47:18.881Z,210.40
2018-10-21T08:49:47.805Z,153.53
2018-10-21T08:52:30.420Z,153.70
2018-10-21T08:54:59.426Z,96.33
2018-10-21T08:57:28.358Z,85.20
2018-10-21T08:59:57.360Z,78.83
2018-10-21T09:02:26.288Z,73.17
2018-10-21T09:04:55.684Z,79.13
2018-10-21T09:07:26.774Z,77.30
2018-10-21T09:09:55.955Z,66.63
2018-10-21T09:12:33.077Z,65.40
2018-10-21T09:15:02.078Z,63.03
2018-10-21T09:17:30.933Z,62.83
2018-10-21T09:19:59.944Z,56.47
2018-10-21T09:22:28.773Z,60.40
2018-10-21T09:24:57.732Z,61.50
2018-10-21T09:27:26.717Z,69.33
2018-10-21T09:30:01.029Z,64.33
2018-10-21T09:32:30.151Z,69.20
2018-10-21T09:34:59.228Z,64.87
2018-10-21T09:37:28.254Z,75.20
2018-10-21T09:39:57.353Z,72.20
2018-10-21T09:42:26.165Z,82.93
2018-10-21T09:44:55.213Z,72.47
2018-10-21T09:47:24.410Z,74.73
2018-10-21T09:49:53.609Z,67.87
2018-10-21T09:52:22.484Z,67.53
2018-10-21T09:54:51.354Z,68.77
2018-10-21T09:57:20.746Z,67.00
2018-10-21T09:59:49.653Z,65.87
2018-10-21T10:02:23.881Z,63.47
2018-10-21T10:04:52.823Z,60.53
2018-10-21T10:07:21.884Z,66.50
2018-10-21T10:09:50.678Z,57.47
2018-10-21T10:12:19.570Z,60.23
2018-10-21T10:14:52.796Z,61.43
2018-10-21T10:17:38.685Z,56.23
2018-10-21T10:20:09.271Z,56.20
2018-10-21T10:22:38.118Z,51.07
2018-10-21T10:25:12.064Z,53.97
2018-10-21T10:27:41.347Z,52.73
2018-10-21T10:30:16.023Z,48.07
2018-10-21T10:32:44.928Z,44.40
2018-10-21T10:35:15.125Z,40.83
2018-10-21T10:37:43.915Z,41.77
2018-10-21T10:40:13.758Z,40.60
2018-10-21T10:42:48.341Z,38.33
2018-10-21T10:45:17.264Z,40.30
2018-10-21T10:47:46.141Z,37.83
2018-10-21T10:50:14.998Z,37.03
2018-10-21T10:52:43.871Z,36.83
2018-10-21T10:55:18.629Z,36.20
2018-10-21T10:57:47.464Z,37.00
2018-10-21T11:00:16.344Z,37.20
2018-10-21T11:02:45.188Z,42.50
2018-10-21T11:05:18.419Z,37.53
2018-10-21T11:07:47.312Z,35.30
2018-10-21T11:10:16.285Z,37.23
2018-10-21T11:12:45.081Z,42.70
2018-10-21T11:15:13.970Z,43.07
2018-10-21T11:17:42.914Z,41.77
2018-10-21T11:20:12.829Z,42.10
2018-10-21T11:22:41.747Z,44.67
2018-10-21T11:25:10.679Z,44.20
2018-10-21T11:27:42.784Z,43.90
2018-10-21T11:30:11.621Z,44.30
2018-10-21T11:32:40.488Z,39.57
2018-10-21T11:35:09.282Z,44.17
2018-10-21T11:37:38.244Z,46.60
2018-10-21T11:40:07.373Z,51.33
2018-10-21T11:42:36.274Z,39.73
2018-10-21T11:45:05.965Z,38.30
2018-10-21T11:47:34.888Z,36.93
2018-10-21T11:50:03.975Z,35.40
2018-10-21T11:52:44.883Z,41.97
2018-10-21T11:55:14.541Z,38.57
2018-10-21T11:57:43.614Z,35.47
2018-10-21T12:00:12.645Z,37.10
2018-10-21T12:02:41.506Z,37.43
2018-10-21T12:05:10.468Z,37.70
2018-10-21T12:07:39.433Z,35.93
2018-10-21T12:10:08.663Z,33.80
2018-10-21T12:12:37.372Z,36.27
2018-10-21T12:15:06.749Z,36.37
2018-10-21T12:17:35.861Z,32.30
2018-10-21T12:20:04.754Z,34.03
2018-10-21T12:22:33.630Z,37.07
2018-10-21T12:25:02.541Z,30.90
2018-10-21T12:27:35.105Z,28.37
2018-10-21T12:30:03.996Z,30.50
2018-10-21T12:32:32.873Z,29.00
2018-10-21T12:35:01.795Z,29.97
2018-10-21T12:37:31.135Z,25.23
2018-10-21T12:40:00.070Z,25.10
2018-10-21T12:42:29.595Z,23.37
2018-10-21T12:44:58.488Z,23.70
2018-10-21T12:47:37.605Z,21.17
2018-10-21T12:50:06.778Z,21.23
2018-10-21T12:52:35.792Z,21.83
2018-10-21T12:55:05.360Z,19.00
2018-10-21T12:57:34.161Z,19.57
2018-10-21T13:00:03.020Z,13.10
2018-10-21T13:02:31.820Z,9.13
2018-10-21T13:05:00.548Z,11.37
2018-10-21T13:07:29.349Z,5.23
2018-10-21T13:09:58.258Z,8.07
2018-10-21T13:12:27.070Z,4.27
2018-10-21T13:14:55.930Z,8.40
2018-10-21T13:17:24.881Z,4.50
2018-10-21T13:19:53.806Z,6.23
2018-10-21T13:22:22.722Z,7.00
2018-10-21T13:24:51.602Z,6.77
2018-10-21T13:27:20.468Z,5.67
2018-10-21T13:29:49.300Z,4.50
2018-10-21T13:32:18.175Z,5.27
2018-10-21T13:34:47.166Z,4.60
2018-10-21T13:37:15.955Z,4.40
2018-10-21T13:39:44.935Z,5.40
2018-10-21T13:42:13.958Z,7.60
2018-10-21T13:44:42.772Z,4.73
2018-10-21T13:47:11.590Z,4.60
2018-10-21T13:49:40.437Z,6.03
2018-10-21T13:52:09.459Z,4.10
2018-10-21T13:54:38.056Z,4.43
2018-10-21T13:57:06.787Z,4.73
2018-10-21T13:59:35.706Z,4.30
2018-10-21T14:02:04.859Z,8.47
2018-10-21T14:04:35.617Z,5.40
2018-10-21T14:07:06.710Z,4.20
2018-10-21T14:09:35.575Z,3.90
2018-10-21T14:12:04.348Z,6.63
2018-10-21T14:14:33.333Z,6.03
2018-10-21T14:17:02.154Z,4.33
2018-10-21T14:19:31.282Z,5.40
2018-10-21T14:22:00.100Z,4.80
2018-10-21T14:24:29.013Z,4.30
2018-10-21T14:26:57.826Z,4.07
2018-10-21T14:29:45.788Z,4.90
2018-10-21T14:32:14.783Z,5.40
2018-10-21T14:34:43.767Z,4.20
2018-10-21T14:37:12.623Z,8.00
2018-10-21T14:39:41.624Z,5.37
2018-10-21T14:42:10.675Z,4.17
2018-10-21T14:44:39.645Z,6.40
2018-10-21T14:47:08.511Z,6.00
2018-10-21T14:49:37.438Z,5.30
2018-10-21T14:52:06.309Z,4.83
2018-10-21T14:54:35.265Z,4.43
2018-10-21T14:57:04.276Z,6.53
2018-10-21T14:59:33.176Z,9.17
2018-10-21T15:02:02.061Z,6.70
2018-10-21T15:04:33.021Z,7.80
2018-10-21T15:07:01.968Z,6.00
2018-10-21T15:09:30.990Z,5.47
2018-10-21T15:11:59.984Z,5.30
2018-10-21T15:14:28.901Z,3.50
2018-10-21T15:16:57.886Z,5.20
2018-10-21T15:19:26.773Z,5.90
2018-10-21T15:21:55.571Z,3.90
2018-10-21T15:24:48.346Z,3.93
2018-10-21T15:27:17.372Z,6.80
2018-10-21T15:29:46.343Z,5.40
2018-10-21T15:32:17.027Z,4.73
2018-10-21T15:34:46.139Z,3.77
2018-10-21T15:37:15.045Z,5.37
2018-10-21T15:39:44.066Z,4.20
2018-10-21T15:42:13.029Z,4.73
2018-10-21T15:44:41.959Z,8.07
2018-10-21T15:47:10.902Z,6.87
2018-10-21T15:49:40.773Z,4.10
2018-10-21T15:52:09.662Z,6.87
2018-10-21T15:54:38.592Z,5.17
2018-10-21T15:57:07.498Z,6.30
2018-10-21T15:59:36.500Z,6.03
2018-10-21T16:02:05.681Z,5.13
2018-10-21T16:04:34.825Z,4.80
2018-10-21T16:07:03.906Z,5.67
2018-10-21T16:09:33.974Z,4.23
2018-10-21T16:12:02.730Z,5.30
2018-10-21T16:14:31.957Z,3.17
2018-10-21T16:17:00.873Z,6.17
2018-10-21T16:19:30.702Z,4.37
2018-10-21T16:22:17.821Z,12.00
2018-10-21T16:24:46.748Z,11.80
2018-10-21T16:27:16.826Z,4.33
2018-10-21T16:29:46.841Z,5.47
2018-10-21T16:35:18.000Z,3.57
2018-10-21T16:37:48.032Z,3.40
2018-10-21T16:40:17.500Z,4.40
2018-10-21T16:42:46.514Z,4.13
2018-10-21T16:45:15.969Z,4.73
2018-10-21T16:47:44.900Z,3.47
2018-10-21T16:50:15.682Z,6.37
2018-10-21T16:52:45.545Z,5.00
2018-10-21T16:55:15.565Z,4.03
2018-10-21T16:57:44.725Z,4.40
2018-10-21T17:00:15.377Z,6.03
2018-10-21T17:02:44.334Z,4.23
2018-10-21T17:05:13.353Z,9.10
2018-10-21T17:07:42.375Z,5.90
2018-10-21T17:10:12.259Z,7.00
2018-10-21T17:12:59.791Z,7.37
2018-10-21T17:15:28.804Z,5.03
2018-10-21T17:17:57.802Z,6.40
2018-10-21T17:20:26.872Z,4.80
2018-10-21T17:22:55.983Z,4.83
2018-10-21T17:25:25.128Z,9.60
2018-10-21T17:27:54.173Z,4.50
2018-10-21T17:30:23.142Z,4.50
2018-10-21T17:33:08.274Z,7.17
2018-10-21T17:35:37.345Z,6.17
2018-10-21T17:38:06.467Z,7.40
2018-10-21T17:40:36.007Z,5.40
2018-10-21T17:43:05.658Z,9.98
2018-10-21T17:45:34.651Z,8.65
2018-10-21T17:48:03.771Z,7.70
2018-10-21T17:50:34.240Z,6.20
2018-10-21T17:53:03.270Z,10.90
2018-10-21T17:55:32.263Z,9.43
2018-10-21T17:58:15.737Z,7.17
2018-10-21T18:00:47.538Z,8.27
2018-10-21T18:03:16.512Z,5.50
2018-10-21T18:05:47.463Z,6.92
2018-10-21T18:08:16.507Z,9.20
2018-10-21T18:10:46.458Z,5.40
2018-10-21T18:13:17.509Z,8.25
2018-10-21T18:15:46.443Z,8.05
2018-10-21T18:18:15.619Z,5.37
2018-10-21T18:20:44.616Z,7.00
2018-10-21T18:23:14.490Z,6.90
2018-10-21T18:25:46.279Z,9.70
2018-10-21T18:28:17.657Z,8.03
2018-10-21T18:30:46.735Z,7.28
2018-10-21T18:33:15.736Z,6.20
2018-10-21T18:35:44.655Z,5.75
2018-10-21T18:38:13.623Z,9.55
2018-10-21T18:40:42.813Z,7.30
2018-10-21T18:43:11.738Z,12.90
2018-10-21T18:45:40.679Z,8.55
2018-10-21T18:48:13.641Z,9.48
2018-10-21T18:50:42.621Z,6.50
2018-10-21T18:53:11.834Z,9.33
2018-10-21T18:55:40.796Z,7.10
2018-10-21T18:58:09.911Z,5.30
2018-10-21T19:00:38.887Z,7.15
2018-10-21T19:03:07.877Z,14.83
2018-10-21T19:05:36.902Z,7.72
2018-10-21T19:08:05.855Z,10.63
2018-10-21T19:10:34.889Z,7.37
2018-10-21T19:13:03.949Z,6.40
2018-10-21T19:15:32.917Z,7.35
2018-10-21T19:18:01.951Z,8.73
2018-10-21T19:20:30.941Z,7.87
2018-10-21T19:22:59.805Z,8.75
2018-10-21T19:25:28.645Z,8.38
2018-10-21T19:27:57.711Z,7.35
2018-10-21T19:30:36.751Z,12.73
2018-10-21T19:33:06.060Z,7.87
2018-10-21T19:35:35.193Z,8.83
2018-10-21T19:38:04.251Z,11.10
2018-10-21T19:40:33.238Z,6.85
2018-10-21T19:43:03.324Z,7.65
2018-10-21T19:45:32.099Z,6.05
2018-10-21T19:48:00.973Z,10.10
2018-10-21T19:50:30.840Z,6.95
2018-10-21T19:52:59.763Z,10.23
2018-10-21T19:55:28.700Z,7.15
2018-10-21T19:57:57.652Z,7.65
2018-10-21T20:00:27.499Z,6.55
2018-10-21T20:02:56.412Z,7.75
2018-10-21T20:05:25.257Z,7.22
2018-10-21T20:07:57.260Z,8.88
2018-10-21T20:10:26.178Z,9.28
2018-10-21T20:12:55.190Z,9.70
2018-10-21T20:15:24.138Z,12.90
2018-10-21T20:17:53.021Z,20.50
2018-10-21T20:20:21.909Z,21.23
2018-10-21T20:22:51.538Z,19.67
2018-10-21T20:25:21.717Z,16.20
2018-10-21T20:27:50.778Z,18.92
2018-10-21T20:30:20.520Z,13.83
2018-10-21T20:32:49.678Z,13.30
2018-10-21T20:35:18.715Z,15.18
2018-10-21T20:37:47.640Z,26.33
2018-10-21T20:40:16.707Z,17.85
2018-10-21T20:42:45.519Z,21.95
2018-10-21T20:45:14.843Z,21.15
2018-10-21T20:47:43.871Z,13.83
2018-10-21T20:50:13.904Z,13.18
2018-10-21T20:52:43.522Z,13.95
2018-10-21T20:55:15.443Z,10.72
2018-10-21T20:57:44.357Z,15.95
2018-10-21T21:00:13.318Z,19.12
2018-10-21T21:02:42.209Z,11.28
2018-10-21T21:05:11.230Z,11.68
2018-10-21T21:07:40.074Z,10.18
2018-10-21T21:10:09.538Z,13.00
2018-10-21T21:12:38.297Z,11.75
2018-10-21T21:15:08.377Z,12.23
2018-10-21T21:17:37.288Z,10.28
2018-10-21T21:20:06.844Z,13.78
2018-10-21T21:22:35.795Z,13.55
2018-10-21T21:25:05.558Z,11.90
2018-10-21T21:27:34.483Z,10.43
2018-10-21T21:30:03.613Z,11.68
2018-10-21T21:32:32.393Z,10.10
2018-10-21T21:35:01.220Z,14.60
2018-10-21T21:37:34.439Z,11.20
2018-10-21T21:40:07.996Z,11.28
2018-10-21T21:42:36.815Z,13.28
2018-10-21T21:45:06.211Z,11.20
2018-10-21T21:47:35.112Z,12.33
2018-10-21T21:50:04.255Z,14.40
2018-10-21T21:52:34.130Z,10.60
2018-10-21T21:55:02.930Z,11.85
2018-10-21T21:57:31.896Z,10.13
2018-10-21T22:00:00.882Z,9.08
2018-10-21T22:02:29.727Z,10.32
2018-10-21T22:04:58.453Z,9.35
2018-10-21T22:07:27.384Z,10.58
2018-10-21T22:09:56.594Z,12.75
2018-10-21T22:12:25.374Z,10.30
2018-10-21T22:14:54.239Z,13.35
2018-10-21T22:17:23.796Z,9.70
2018-10-21T22:19:52.645Z,11.20
2018-10-21T22:22:21.551Z,11.63
2018-10-21T22:24:50.479Z,11.18
2018-10-21T22:27:19.456Z,11.63
2018-10-21T22:29:50.440Z,11.85
2018-10-21T22:32:19.329Z,12.25
2018-10-21T22:34:48.163Z,13.30
2018-10-21T22:37:18.032Z,13.38
2018-10-21T22:39:46.982Z,12.47
2018-10-21T22:42:15.827Z,11.45
2018-10-21T22:44:44.732Z,15.40
2018-10-21T22:47:13.685Z,14.65
2018-10-21T22:49:42.666Z,11.97
2018-10-21T22:52:11.653Z,18.67
2018-10-21T22:54:40.390Z,13.38
2018-10-21T22:57:14.333Z,13.50
2018-10-21T22:59:43.147Z,14.25
2018-10-21T23:02:12.051Z,14.68
2018-10-21T23:04:41.094Z,15.23
2018-10-21T23:07:10.093Z,17.25
2018-10-21T23:09:39.710Z,16.12
2018-10-21T23:12:08.821Z,14.10
2018-10-21T23:14:37.965Z,14.80
2018-10-21T23:17:06.915Z,15.15
2018-10-21T23:19:44.540Z,15.95
2018-10-21T23:22:13.467Z,13.53
2018-10-21T23:24:42.518Z,15.15
2018-10-21T23:27:12.030Z,20.70
2018-10-21T23:29:41.572Z,23.45
2018-10-21T23:32:10.411Z,17.05
2018-10-21T23:34:39.429Z,19.50
2018-10-21T23:37:08.758Z,15.58
2018-10-21T23:39:38.819Z,16.87
2018-10-21T23:42:07.672Z,18.95
2018-10-21T23:44:36.494Z,16.25
2018-10-21T23:47:05.560Z,19.98
2018-10-21T23:49:35.890Z,16.82
2018-10-21T23:52:07.774Z,15.35
2018-10-21T23:54:36.652Z,19.02
2018-10-21T23:57:07.076Z,20.57
2018-10-21T23:59:36.698Z,20.25
